Time;durP1;ratioP1;P1;durP2;ratioP2;P2;SDS_P1;SDS_P2;PMS_P1;PMS_P2;Temp;Humidity;BMP_temperature;BMP_pressure;BME280_temperature;BME280_humidity;BME280_pressure;Samples;Min_cycle;Max_cycle;Signal;HPM_P1;HPM_P2
2023/01/03 00:00:20;;;;;;;;;;;;;;;7.84;100.00;102463.81;5271165;28;19932;-75
2023/01/03 00:02:51;;;;;;;;;;;;;;;7.92;100.00;102466.06;5264785;28;20011;-75
2023/01/03 00:05:23;;;;;;;;;;;;;;;7.88;100.00;102469.69;5272590;28;20180;-75
2023/01/03 00:07:54;;;;;;;;;;;;;;;7.87;100.00;102470.63;5270681;28;20318;-74
2023/01/03 00:10:25;;;;;;;;;;;;;;;7.79;100.00;102465.75;5270887;28;19927;-75
2023/01/03 00:12:56;;;;;;;;;;;;;;;7.76;100.00;102471.97;5272934;28;19919;-74
2023/01/03 00:15:27;;;;;;;;;;;;;;;7.74;100.00;102470.38;5272700;28;19923;-75
2023/01/03 00:17:58;;;;;;;;;;;;;;;7.71;100.00;102478.34;5274938;28;19916;-74
2023/01/03 00:20:30;;;;;;;;;;;;;;;7.67;100.00;102477.63;5272309;28;19917;-75
2023/01/03 00:23:01;;;;;;;;;;;;;;;7.62;100.00;102463.97;5271013;28;19966;-75
2023/01/03 00:25:32;;;;;;;;;;;;;;;7.59;100.00;102461.50;5272644;28;20339;-75
2023/01/03 00:28:03;;;;;;;;;;;;;;;7.55;100.00;102460.78;5273331;28;20054;-74
2023/01/03 00:30:35;;;;;;;;;;;;;;;7.55;100.00;102458.19;5268898;28;20370;-73
2023/01/03 00:33:06;;;;;;;;;;;;;;;7.49;100.00;102462.81;5270094;28;19916;-75
2023/01/03 00:35:37;;;;;;;;;;;;;;;7.46;100.00;102470.78;5266386;28;19940;-74
2023/01/03 00:38:08;;;;;;;;;;;;;;;7.46;100.00;102466.44;5271302;28;19916;-74
2023/01/03 00:40:39;;;;;;;;;;;;;;;7.43;100.00;102471.78;5272635;28;19969;-75
2023/01/03 00:43:29;;;;;;;;;;;;;;;7.41;100.00;102473.59;5270617;28;19962;-74
2023/01/03 00:46:00;;;;;;;;;;;;;;;7.38;100.00;102478.94;5273207;28;20420;-75
2023/01/03 00:48:32;;;;;;;;;;;;;;;7.33;100.00;102478.31;5272126;28;19947;-74
2023/01/03 00:51:04;;;;;;;;;;;;;;;7.27;100.00;102479.47;5272582;28;19920;-75
2023/01/03 00:53:36;;;;;;;;;;;;;;;7.31;100.00;102490.56;5274391;28;20621;-74
2023/01/03 00:56:09;;;;;;;;;;;;;;;7.28;100.00;102491.56;5271851;28;19920;-73
2023/01/03 00:58:40;;;;;;;;;;;;;;;7.24;100.00;102489.16;5270252;28;20329;-75
2023/01/03 01:01:16;;;;;;;;;;;;;;;7.22;100.00;102485.78;5271293;28;19927;-74
2023/01/03 01:03:49;;;;;;;;;;;;;;;7.20;100.00;102487.63;5270879;28;20441;-74
2023/01/03 01:06:22;;;;;;;;;;;;;;;7.19;100.00;102488.50;5270709;28;20296;-73
2023/01/03 01:08:54;;;;;;;;;;;;;;;7.17;100.00;102490.34;5273429;28;19961;-75
2023/01/03 01:11:26;;;;;;;;;;;;;;;7.14;100.00;102493.09;5272670;28;19916;-75
2023/01/03 01:13:57;;;;;;;;;;;;;;;7.13;100.00;102499.22;5271530;28;19916;-75
2023/01/03 01:16:30;;;;;;;;;;;;;;;7.10;100.00;102501.97;5273085;28;19912;-74
2023/01/03 01:19:01;;;;;;;;;;;;;;;7.06;100.00;102506.47;5270813;28;20338;-75
2023/01/03 01:21:32;;;;;;;;;;;;;;;7.01;100.00;102500.59;5270321;28;19951;-74
2023/01/03 01:24:03;;;;;;;;;;;;;;;6.96;100.00;102510.38;5272315;28;19923;-74
2023/01/03 01:26:35;;;;;;;;;;;;;;;6.89;100.00;102507.16;5272802;28;19916;-74
2023/01/03 01:29:06;;;;;;;;;;;;;;;6.87;100.00;102514.22;5269595;28;19916;-75
2023/01/03 01:31:37;;;;;;;;;;;;;;;6.83;100.00;102507.44;5268555;28;20007;-74
2023/01/03 01:34:09;;;;;;;;;;;;;;;6.84;100.00;102509.13;5270208;28;19924;-75
2023/01/03 01:36:41;;;;;;;;;;;;;;;6.81;100.00;102517.06;5270778;28;19967;-74
2023/01/03 01:39:14;;;;;;;;;;;;;;;6.80;100.00;102515.38;5271272;28;20484;-75
2023/01/03 01:44:45;;;;;;;;;;;;;;;6.77;100.00;102526.75;5270856;28;19913;-74
2023/01/03 01:47:25;;;;;;;;;;;;;;;6.75;100.00;102527.75;5271891;28;19912;-75
2023/01/03 01:50:11;;;;;;;;;;;;;;;6.70;100.00;102527.09;5272708;28;20419;-74
2023/01/03 01:52:48;;;;;;;;;;;;;;;6.66;100.00;102528.13;5268284;28;19943;-74
2023/01/03 01:55:22;;;;;;;;;;;;;;;6.60;100.00;102533.59;5270502;28;19920;-74
2023/01/03 01:57:53;;;;;;;;;;;;;;;6.58;100.00;102537.09;5273152;28;19973;-75
2023/01/03 02:00:24;;;;;;;;;;;;;;;6.53;100.00;102539.06;5268585;28;19912;-74
2023/01/03 02:02:56;;;;;;;;;;;;;;;6.50;100.00;102543.53;5264890;28;19986;-75
2023/01/03 02:05:27;;;;;;;;;;;;;;;6.48;100.00;102543.63;5270223;28;19912;-74
2023/01/03 02:07:59;;;;;;;;;;;;;;;6.49;100.00;102542.69;5270117;28;19916;-75
2023/01/03 02:10:43;;;;;;;;;;;;;;;6.47;100.00;102534.09;5271361;28;19916;-74
2023/01/03 02:13:30;;;;;;;;;;;;;;;6.45;100.00;102530.72;5270560;28;20331;-73
2023/01/03 02:16:14;;;;;;;;;;;;;;;6.40;100.00;102522.22;5272394;28;19919;-73
2023/01/03 02:18:56;;;;;;;;;;;;;;;6.38;100.00;102531.88;5270932;28;19924;-74
2023/01/03 02:21:43;;;;;;;;;;;;;;;6.39;100.00;102540.50;5269380;28;20015;-74
2023/01/03 02:24:27;;;;;;;;;;;;;;;6.35;100.00;102542.38;5270069;28;20435;-74
2023/01/03 02:27:04;;;;;;;;;;;;;;;6.31;100.00;102553.84;5270755;28;19942;-74
2023/01/03 02:29:54;;;;;;;;;;;;;;;6.29;100.00;102553.91;5272503;28;20358;-76
2023/01/03 02:32:33;;;;;;;;;;;;;;;6.25;100.00;102551.47;5269523;28;19942;-75
2023/01/03 02:35:15;;;;;;;;;;;;;;;6.24;100.00;102555.81;5267200;28;19924;-74
2023/01/03 02:37:53;;;;;;;;;;;;;;;6.24;100.00;102558.44;5272047;28;19922;-74
2023/01/03 02:40:33;;;;;;;;;;;;;;;6.23;100.00;102546.34;5268967;28;19927;-74
2023/01/03 02:43:16;;;;;;;;;;;;;;;6.20;100.00;102543.84;5270060;28;19955;-74
2023/01/03 02:45:56;;;;;;;;;;;;;;;6.20;100.00;102548.22;5272333;28;19921;-74
2023/01/03 02:48:37;;;;;;;;;;;;;;;6.18;100.00;102544.84;5275302;28;19912;-74
2023/01/03 02:51:18;;;;;;;;;;;;;;;6.12;100.00;102547.66;5274758;28;19916;-74
2023/01/03 02:53:49;;;;;;;;;;;;;;;6.12;100.00;102539.84;5276496;28;20365;-75
2023/01/03 02:56:34;;;;;;;;;;;;;;;6.08;100.00;102539.13;5272775;28;19962;-74
2023/01/03 02:59:07;;;;;;;;;;;;;;;6.07;100.00;102540.88;5271822;28;19924;-73
2023/01/03 03:01:43;;;;;;;;;;;;;;;6.06;100.00;102547.00;5272989;28;19916;-75
2023/01/03 03:04:15;;;;;;;;;;;;;;;6.05;100.00;102536.63;5273628;28;19928;-74
2023/01/03 03:06:59;;;;;;;;;;;;;;;6.03;100.00;102543.66;5274845;28;19916;-75
2023/01/03 03:09:30;;;;;;;;;;;;;;;6.02;100.00;102541.94;5273374;28;20011;-74
2023/01/03 03:14:53;;;;;;;;;;;;;;;5.98;100.00;102551.63;5270713;28;19916;-74
2023/01/03 03:17:28;;;;;;;;;;;;;;;5.97;100.00;102559.50;5273589;28;20354;-74
2023/01/03 03:25:47;;;;;;;;;;;;;;;5.98;100.00;102545.56;5276335;28;20378;-74
2023/01/03 03:28:35;;;;;;;;;;;;;;;5.97;100.00;102541.28;5275228;28;20002;-74
2023/01/03 03:31:31;;;;;;;;;;;;;;;5.92;100.00;102540.59;5269553;28;19912;-74
2023/01/03 03:34:08;;;;;;;;;;;;;;;5.89;100.00;102536.34;5254845;28;19928;-74
2023/01/03 03:36:42;;;;;;;;;;;;;;;5.89;100.00;102548.50;5274098;28;19920;-74
2023/01/03 03:45:12;;;;;;;;;;;;;;;5.84;100.00;102549.53;5275327;28;19912;-74
2023/01/03 03:47:46;;;;;;;;;;;;;;;5.81;100.00;102543.59;5270865;28;19920;-74
2023/01/03 03:50:29;;;;;;;;;;;;;;;5.85;100.00;102542.56;5272325;28;20026;-74
2023/01/03 03:53:04;;;;;;;;;;;;;;;5.81;100.00;102544.44;5271698;28;19958;-74
2023/01/03 03:55:38;;;;;;;;;;;;;;;5.87;100.00;102545.94;5274918;28;20368;-74
2023/01/03 03:58:29;;;;;;;;;;;;;;;5.84;100.00;102543.50;5271921;28;20066;-74
2023/01/03 04:01:01;;;;;;;;;;;;;;;5.84;100.00;102541.72;5272367;28;19987;-74
2023/01/03 04:03:33;;;;;;;;;;;;;;;5.78;100.00;102543.72;5274960;28;20382;-74
2023/01/03 04:06:08;;;;;;;;;;;;;;;5.77;100.00;102540.25;5271478;28;19920;-74
2023/01/03 04:08:39;;;;;;;;;;;;;;;5.80;100.00;102547.13;5274244;28;20378;-73
2023/01/03 04:11:10;;;;;;;;;;;;;;;5.81;100.00;102543.59;5271507;28;19916;-74
2023/01/03 04:13:41;;;;;;;;;;;;;;;5.85;100.00;102550.38;5273681;28;19959;-76
2023/01/03 04:16:13;;;;;;;;;;;;;;;5.84;100.00;102546.09;5273886;28;20301;-74
2023/01/03 04:18:44;;;;;;;;;;;;;;;5.81;100.00;102546.19;5273209;28;19971;-76
2023/01/03 04:21:15;;;;;;;;;;;;;;;5.83;100.00;102544.38;5273535;28;19922;-73
2023/01/03 04:23:46;;;;;;;;;;;;;;;5.82;100.00;102540.09;5269641;28;19921;-74
2023/01/03 04:26:17;;;;;;;;;;;;;;;5.86;100.00;102541.66;5272956;28;20436;-73
2023/01/03 04:28:48;;;;;;;;;;;;;;;5.82;100.00;102534.88;5273852;28;19916;-74
2023/01/03 04:31:20;;;;;;;;;;;;;;;5.83;100.00;102536.56;5273120;28;19913;-75
2023/01/03 04:33:52;;;;;;;;;;;;;;;5.79;100.00;102538.44;5272659;28;19951;-74
2023/01/03 04:36:24;;;;;;;;;;;;;;;5.79;100.00;102540.19;5272555;28;20002;-74
2023/01/03 04:38:55;;;;;;;;;;;;;;;5.76;100.00;102540.34;5271149;28;19924;-74
2023/01/03 04:41:26;;;;;;;;;;;;;;;5.73;100.00;102540.44;5272280;28;19991;-74
2023/01/03 04:44:00;;;;;;;;;;;;;;;5.72;100.00;102547.41;5274094;28;19916;-75
2023/01/03 04:46:33;;;;;;;;;;;;;;;5.69;100.00;102546.66;5273799;28;19916;-74
2023/01/03 04:49:05;;;;;;;;;;;;;;;5.66;100.00;102550.22;5271746;28;20292;-74
2023/01/03 04:51:36;;;;;;;;;;;;;;;5.66;100.00;102551.97;5271797;28;20014;-74
2023/01/03 04:54:08;;;;;;;;;;;;;;;5.66;100.00;102544.16;5272437;28;20015;-75
2023/01/03 04:56:39;;;;;;;;;;;;;;;5.69;100.00;102544.06;5269690;28;19916;-74
2023/01/03 04:59:10;;;;;;;;;;;;;;;5.65;100.00;102545.94;5272280;28;19917;-74
2023/01/03 05:01:50;;;;;;;;;;;;;;;5.64;100.00;102545.97;5272301;28;19939;-74
2023/01/03 05:04:21;;;;;;;;;;;;;;;5.63;100.00;102544.28;5272584;28;19935;-75
2023/01/03 05:06:53;;;;;;;;;;;;;;;5.65;100.00;102539.88;5272993;28;20313;-75
2023/01/03 05:09:27;;;;;;;;;;;;;;;5.66;100.00;102524.22;5271248;28;20368;-74
2023/01/03 05:11:59;;;;;;;;;;;;;;;5.65;100.00;102534.69;5267981;28;19942;-74
2023/01/03 05:14:30;;;;;;;;;;;;;;;5.65;100.00;102530.31;5273014;28;20295;-76
2023/01/03 05:17:02;;;;;;;;;;;;;;;5.66;100.00;102538.97;5273690;28;20558;-74
2023/01/03 05:19:33;;;;;;;;;;;;;;;5.67;100.00;102532.84;5272926;28;19920;-75
2023/01/03 05:27:48;;;;;;;;;;;;;;;5.66;100.00;102520.75;5272661;28;19916;-75
2023/01/03 05:30:19;;;;;;;;;;;;;;;5.68;100.00;102524.13;5266882;28;20254;-74
2023/01/03 05:32:50;;;;;;;;;;;;;;;5.65;100.00;102521.69;5273434;28;19923;-74
2023/01/03 05:35:21;;;;;;;;;;;;;;;5.66;100.00;102518.16;5271082;28;19921;-74
2023/01/03 05:37:53;;;;;;;;;;;;;;;5.68;100.00;102514.59;5269604;28;19912;-75
2023/01/03 05:40:24;;;;;;;;;;;;;;;5.71;100.00;102503.22;5272026;28;20308;-74
2023/01/03 05:42:55;;;;;;;;;;;;;;;5.69;100.00;102508.50;5271251;28;19908;-74
2023/01/03 05:45:26;;;;;;;;;;;;;;;5.72;100.00;102503.19;5270423;28;19951;-74
2023/01/03 05:47:58;;;;;;;;;;;;;;;5.72;100.00;102521.41;5269970;28;20389;-74
2023/01/03 05:50:29;;;;;;;;;;;;;;;5.74;100.00;102523.94;5268422;28;19939;-74
2023/01/03 05:53:00;;;;;;;;;;;;;;;5.76;100.00;102522.13;5266648;28;19920;-74
2023/01/03 05:55:31;;;;;;;;;;;;;;;5.78;100.00;102513.34;5271025;28;19919;-74
2023/01/03 05:58:03;;;;;;;;;;;;;;;5.83;100.00;102515.75;5272351;28;19931;-74
2023/01/03 06:00:34;;;;;;;;;;;;;;;5.85;100.00;102512.19;5269887;28;20384;-75
2023/01/03 06:03:05;;;;;;;;;;;;;;;5.88;100.00;102506.03;5269429;28;19954;-74
2023/01/03 06:05:36;;;;;;;;;;;;;;;5.93;100.00;102506.75;5272131;28;20284;-74
2023/01/03 06:08:08;;;;;;;;;;;;;;;5.99;100.00;102503.06;5268168;28;19927;-74
2023/01/03 06:10:39;;;;;;;;;;;;;;;6.02;100.00;102503.81;5269414;28;19920;-74
2023/01/03 06:13:10;;;;;;;;;;;;;;;6.06;100.00;102496.69;5270913;28;19940;-74
2023/01/03 06:17:53;;;;;;;;;;;;;;;6.11;100.00;102493.94;5269926;28;19923;-74
2023/01/03 06:18:33;;;;;;;;;;;;;;;6.18;100.00;102485.81;5270057;28;19952;-74
2023/01/03 06:21:05;;;;;;;;;;;;;;;6.19;100.00;102484.91;5268393;28;20405;-75
2023/01/03 06:23:36;;;;;;;;;;;;;;;6.27;100.00;102492.41;5271921;28;19963;-74
2023/01/03 06:26:07;;;;;;;;;;;;;;;6.34;100.00;102494.69;5271640;28;19912;-75
2023/01/03 06:28:38;;;;;;;;;;;;;;;6.37;100.00;102485.94;5272727;28;19960;-74
2023/01/03 06:31:10;;;;;;;;;;;;;;;6.43;100.00;102490.88;5268877;28;19916;-76
2023/01/03 06:33:41;;;;;;;;;;;;;;;6.48;100.00;102480.28;5267752;28;20625;-75
2023/01/03 06:36:13;;;;;;;;;;;;;;;6.48;100.00;102478.53;5268650;28;20281;-74
2023/01/03 06:38:45;;;;;;;;;;;;;;;6.43;100.00;102480.44;5271272;28;19916;-75
2023/01/03 06:41:16;;;;;;;;;;;;;;;6.40;100.00;102480.56;5270709;28;19924;-74
2023/01/03 06:43:47;;;;;;;;;;;;;;;6.48;100.00;102481.13;5271508;28;19935;-74
2023/01/03 06:54:53;;;;;;;;;;;;;;;6.50;100.00;102455.00;5270294;28;19959;-75
2023/01/03 06:57:24;;;;;;;;;;;;;;;6.51;100.00;102454.94;5268241;28;20023;-74
2023/01/03 06:59:55;;;;;;;;;;;;;;;6.56;100.00;102462.56;5270722;28;19970;-75
2023/01/03 07:02:27;;;;;;;;;;;;;;;6.53;100.00;102481.78;5262516;28;19920;-76
2023/01/03 07:04:58;;;;;;;;;;;;;;;6.49;100.00;102472.41;5270656;28;20630;-74
2023/01/03 07:07:29;;;;;;;;;;;;;;;6.55;100.00;102461.75;5268896;28;20408;-75
2023/01/03 07:10:00;;;;;;;;;;;;;;;6.56;100.00;102479.03;5264373;28;19920;-74
2023/01/03 07:15:21;;;;;;;;;;;;;;;6.59;100.00;102519.72;5265738;28;19916;-74
2023/01/03 07:17:53;;;;;;;;;;;;;;;6.64;100.00;102503.94;5266903;28;19916;-74
2023/01/03 07:20:24;;;;;;;;;;;;;;;6.65;100.00;102514.25;5270309;28;20413;-74
2023/01/03 07:22:55;;;;;;;;;;;;;;;6.68;100.00;102510.69;5268287;28;20006;-75
2023/01/03 07:25:27;;;;;;;;;;;;;;;6.75;100.00;102514.75;5268721;28;20421;-74
2023/01/03 07:27:58;;;;;;;;;;;;;;;6.76;100.00;102513.81;5268109;28;19935;-74
2023/01/03 07:30:29;;;;;;;;;;;;;;;6.79;100.00;102509.34;5269756;28;19968;-74
2023/01/03 07:33:00;;;;;;;;;;;;;;;6.89;100.00;102504.56;5268903;28;20003;-74
2023/01/03 07:35:32;;;;;;;;;;;;;;;6.99;100.00;102503.25;5271424;28;20345;-75
2023/01/03 07:38:04;;;;;;;;;;;;;;;6.97;100.00;102502.50;5274915;28;20019;-74
2023/01/03 07:40:35;;;;;;;;;;;;;;;7.02;100.00;102504.91;5268200;28;19912;-75
2023/01/03 07:45:58;;;;;;;;;;;;;;;7.03;100.00;102506.59;5272216;28;19920;-74
2023/01/03 07:48:29;;;;;;;;;;;;;;;7.09;100.00;102513.31;5264769;28;20382;-75
2023/01/03 07:51:00;;;;;;;;;;;;;;;7.17;100.00;102516.41;5269817;28;19954;-75
2023/01/03 07:53:32;;;;;;;;;;;;;;;7.17;100.00;102513.81;5266338;28;19913;-74
2023/01/03 07:56:05;;;;;;;;;;;;;;;7.17;100.00;102519.03;5253138;28;20019;-74
2023/01/03 07:58:38;;;;;;;;;;;;;;;7.18;100.00;102523.31;5271652;28;19916;-75
2023/01/03 08:01:09;;;;;;;;;;;;;;;7.20;100.00;102524.97;5272739;28;19916;-74
2023/01/03 08:03:40;;;;;;;;;;;;;;;7.20;100.00;102530.16;5272466;28;19932;-75
2023/01/03 08:06:13;;;;;;;;;;;;;;;7.19;100.00;102532.81;5270427;28;19922;-75
2023/01/03 08:08:44;;;;;;;;;;;;;;;7.17;100.00;102534.66;5267799;28;20696;-74
2023/01/03 08:14:05;;;;;;;;;;;;;;;7.27;100.00;102543.75;5269202;28;20373;-75
2023/01/03 08:16:36;;;;;;;;;;;;;;;7.32;100.00;102550.47;5272710;28;19917;-75
2023/01/03 08:19:08;;;;;;;;;;;;;;;7.35;100.00;102552.13;5271422;28;19920;-75
2023/01/03 08:21:39;;;;;;;;;;;;;;;7.38;100.00;102556.31;5269483;28;19935;-75
2023/01/03 08:24:10;;;;;;;;;;;;;;;7.41;100.00;102558.81;5266465;28;20023;-75
2023/01/03 08:26:41;;;;;;;;;;;;;;;7.45;100.00;102548.16;5266623;28;19920;-75
2023/01/03 08:29:13;;;;;;;;;;;;;;;7.50;100.00;102548.84;5265030;28;19921;-75
2023/01/03 08:31:51;;;;;;;;;;;;;;;7.50;100.00;102555.78;5269311;28;20070;-75
2023/01/03 08:34:23;;;;;;;;;;;;;;;7.56;100.00;102553.75;5273630;28;19948;-75
2023/01/03 08:36:56;;;;;;;;;;;;;;;7.51;100.00;102555.72;5260395;28;19927;-75
2023/01/03 08:39:30;;;;;;;;;;;;;;;7.59;100.00;102557.16;5271126;28;19920;-75
2023/01/03 08:42:03;;;;;;;;;;;;;;;7.63;100.00;102561.31;5267245;28;19916;-75
2023/01/03 08:44:35;;;;;;;;;;;;;;;7.66;100.00;102562.03;5269394;28;19920;-75
2023/01/03 08:47:07;;;;;;;;;;;;;;;7.68;100.00;102565.41;5268490;28;19916;-75
2023/01/03 08:49:38;;;;;;;;;;;;;;;7.70;100.00;102567.94;5270509;28;19921;-75
2023/01/03 08:52:10;;;;;;;;;;;;;;;7.77;100.00;102564.16;5272280;28;19908;-75
2023/01/03 08:54:42;;;;;;;;;;;;;;;7.85;100.00;102563.81;5270725;28;19916;-75
2023/01/03 08:57:13;;;;;;;;;;;;;;;7.87;100.00;102577.59;5269918;28;19958;-74
2023/01/03 08:59:45;;;;;;;;;;;;;;;7.92;100.00;102575.66;5274439;28;19925;-75
2023/01/03 09:02:16;;;;;;;;;;;;;;;7.92;100.00;102573.88;5264521;28;19916;-75
2023/01/03 09:04:47;;;;;;;;;;;;;;;7.98;100.00;102576.19;5264921;28;19916;-75
2023/01/03 09:07:18;;;;;;;;;;;;;;;7.94;100.00;102573.81;5267588;28;19920;-76
2023/01/03 09:09:49;;;;;;;;;;;;;;;7.98;100.00;102575.34;5269151;28;19920;-74
2023/01/03 09:12:21;;;;;;;;;;;;;;;8.04;100.00;102581.16;5269549;28;19920;-75
2023/01/03 09:14:52;;;;;;;;;;;;;;;8.01;100.00;102581.28;5256107;28;19919;-75
2023/01/03 09:17:23;;;;;;;;;;;;;;;8.10;100.00;102587.00;5269558;28;19947;-75
2023/01/03 09:19:54;;;;;;;;;;;;;;;8.13;100.00;102582.47;5268019;28;19924;-74
2023/01/03 09:22:26;;;;;;;;;;;;;;;8.17;100.00;102580.56;5258045;28;19916;-75
2023/01/03 09:24:57;;;;;;;;;;;;;;;8.23;100.00;102585.50;5270962;28;19923;-76
2023/01/03 09:27:28;;;;;;;;;;;;;;;8.29;100.00;102588.66;5270859;28;20332;-75
2023/01/03 09:29:59;;;;;;;;;;;;;;;8.38;100.00;102589.19;5271133;28;20388;-76
2023/01/03 09:32:31;;;;;;;;;;;;;;;8.31;100.00;102577.31;5271722;28;19935;-75
2023/01/03 09:35:02;;;;;;;;;;;;;;;8.35;100.00;102576.25;5267345;28;19928;-76
2023/01/03 09:37:33;;;;;;;;;;;;;;;8.32;100.00;102574.63;5264572;28;20362;-76
2023/01/03 09:40:05;;;;;;;;;;;;;;;8.39;100.00;102585.66;5270043;28;19920;-76
2023/01/03 09:45:28;;;;;;;;;;;;;;;8.45;100.00;102582.75;5268310;28;19916;-76
2023/01/03 09:48:00;;;;;;;;;;;;;;;8.56;100.00;102584.84;5266390;28;19951;-75
2023/01/03 09:50:33;;;;;;;;;;;;;;;8.56;100.00;102590.94;5266615;28;20020;-75
2023/01/03 10:05:09;;;;;;;;;;;;;;;8.54;100.00;102566.63;5230616;28;19912;-76
2023/01/03 10:07:49;;;;;;;;;;;;;;;8.67;100.00;102566.88;5267558;28;19925;-76
2023/01/03 10:10:42;;;;;;;;;;;;;;;8.65;100.00;102566.97;5270037;28;19923;-75
2023/01/03 10:13:13;;;;;;;;;;;;;;;8.73;100.00;102575.25;5263110;28;20381;-75
2023/01/03 10:16:03;;;;;;;;;;;;;;;8.75;100.00;102573.44;5247587;28;20006;-75
2023/01/03 10:18:53;;;;;;;;;;;;;;;8.76;100.00;102580.34;5253318;28;19928;-75
2023/01/03 10:21:24;;;;;;;;;;;;;;;8.83;100.00;102580.06;5261763;28;19920;-75
2023/01/03 10:23:55;;;;;;;;;;;;;;;8.86;100.00;102579.88;5268047;28;19939;-73
2023/01/03 10:26:31;;;;;;;;;;;;;;;8.83;100.00;102574.81;5262820;28;19938;-73
2023/01/03 10:29:03;;;;;;;;;;;;;;;8.85;100.00;102576.41;5266421;28;19916;-75
2023/01/03 10:31:49;;;;;;;;;;;;;;;8.92;100.00;102571.75;5259640;28;20350;-75
2023/01/03 10:34:20;;;;;;;;;;;;;;;8.97;100.00;102569.72;5267924;28;19922;-76
2023/01/03 10:36:51;;;;;;;;;;;;;;;9.06;100.00;102573.66;5267157;28;19916;-75
2023/01/03 10:39:27;;;;;;;;;;;;;;;9.09;100.00;102570.88;5263187;28;20378;-76
2023/01/03 10:41:59;;;;;;;;;;;;;;;9.10;100.00;102583.03;5268822;28;20357;-76
2023/01/03 10:44:31;;;;;;;;;;;;;;;9.10;100.00;102573.44;5264581;28;19946;-75
2023/01/03 10:47:09;;;;;;;;;;;;;;;9.16;100.00;102578.31;5262404;28;19961;-75
2023/01/03 10:49:43;;;;;;;;;;;;;;;9.30;100.00;102568.94;5261413;28;19912;-76
2023/01/03 10:52:21;;;;;;;;;;;;;;;9.45;100.00;102574.22;5263096;28;19971;-76
2023/01/03 10:54:54;;;;;;;;;;;;;;;9.57;100.00;102566.66;5252581;28;20377;-76
2023/01/03 10:57:52;;;;;;;;;;;;;;;9.57;100.00;102572.72;5261449;28;19939;-74
2023/01/03 11:00:23;;;;;;;;;;;;;;;9.42;100.00;102573.53;5254701;28;19920;-76
2023/01/03 11:03:00;;;;;;;;;;;;;;;9.42;100.00;102571.75;5266859;28;19969;-75
2023/01/03 11:05:31;;;;;;;;;;;;;;;9.44;100.00;102571.69;5254529;28;20290;-75
2023/01/03 11:08:04;;;;;;;;;;;;;;;9.42;100.00;102563.91;5263192;28;19939;-76
2023/01/03 11:10:37;;;;;;;;;;;;;;;9.48;100.00;102565.38;5266614;28;19920;-76
2023/01/03 11:13:20;;;;;;;;;;;;;;;9.42;100.00;102563.91;5266914;28;19951;-76
2023/01/03 11:15:53;;;;;;;;;;;;;;;9.39;100.00;102558.81;5268005;28;19927;-75
2023/01/03 11:18:28;;;;;;;;;;;;;;;9.46;100.00;102557.59;5266860;28;19924;-76
2023/01/03 11:21:16;;;;;;;;;;;;;;;9.46;100.00;102568.03;5265863;28;19927;-75
2023/01/03 11:24:17;;;;;;;;;;;;;;;9.55;100.00;102565.91;5261994;28;20400;-74
2023/01/03 11:27:05;;;;;;;;;;;;;;;9.59;100.00;102563.03;5238967;28;20317;-75
2023/01/03 11:29:40;;;;;;;;;;;;;;;9.52;100.00;102563.44;5257364;28;19924;-75
2023/01/03 11:32:14;;;;;;;;;;;;;;;9.56;100.00;102564.97;5271609;28;19998;-76
2023/01/03 11:35:00;;;;;;;;;;;;;;;9.52;100.00;102564.28;5271904;28;19917;-77
2023/01/03 11:37:48;;;;;;;;;;;;;;;9.49;100.00;102565.28;5271258;28;19939;-76
2023/01/03 11:40:38;;;;;;;;;;;;;;;9.49;100.00;102564.44;5266252;28;19921;-75
2023/01/03 11:43:21;;;;;;;;;;;;;;;9.46;100.00;102564.59;5265739;28;20031;-76
2023/01/03 11:45:52;;;;;;;;;;;;;;;9.48;100.00;102558.34;5267422;28;19942;-76
2023/01/03 11:48:24;;;;;;;;;;;;;;;9.39;100.00;102558.81;5270219;28;19921;-74
2023/01/03 11:51:17;;;;;;;;;;;;;;;9.41;100.00;102550.91;5271835;28;19916;-76
2023/01/03 11:54:07;;;;;;;;;;;;;;;9.33;100.00;102553.94;5266331;28;19919;-76
2023/01/03 11:56:46;;;;;;;;;;;;;;;9.32;100.00;102546.16;5265034;28;20007;-75
2023/01/03 11:59:17;;;;;;;;;;;;;;;9.41;100.00;102536.06;5269591;28;19925;-76
2023/01/03 12:01:53;;;;;;;;;;;;;;;9.60;100.00;102540.31;5268470;28;19963;-74
2023/01/03 12:04:30;;;;;;;;;;;;;;;9.58;100.00;102534.31;5267974;28;19928;-75
2023/01/03 12:07:13;;;;;;;;;;;;;;;9.65;100.00;102533.91;5265811;28;20293;-73
2023/01/03 12:09:53;;;;;;;;;;;;;;;9.75;100.00;102524.63;5267154;28;19912;-75
2023/01/03 12:12:24;;;;;;;;;;;;;;;9.86;100.00;102531.06;5269956;28;19920;-75
2023/01/03 12:15:11;;;;;;;;;;;;;;;9.91;100.00;102516.78;5271426;28;19917;-74
2023/01/03 12:17:56;;;;;;;;;;;;;;;9.89;100.00;102513.41;5267164;28;20007;-75
2023/01/03 12:20:33;;;;;;;;;;;;;;;9.92;100.00;102505.38;5268040;28;20022;-76
2023/01/03 12:23:15;;;;;;;;;;;;;;;10.04;100.00;102505.63;5269585;28;20050;-76
2023/01/03 12:25:50;;;;;;;;;;;;;;;9.88;100.00;102503.00;5251398;28;19920;-75
2023/01/03 12:28:31;;;;;;;;;;;;;;;9.96;100.00;102495.56;5269020;28;19921;-73
2023/01/03 12:31:05;;;;;;;;;;;;;;;9.95;100.00;102505.19;5267341;28;20007;-75
2023/01/03 12:33:41;;;;;;;;;;;;;;;10.07;100.00;102502.81;5248414;28;20005;-74
2023/01/03 12:36:21;;;;;;;;;;;;;;;10.12;100.00;102500.81;5269687;28;19913;-75
2023/01/03 12:39:11;;;;;;;;;;;;;;;10.15;100.00;102496.25;5265921;28;19917;-76
2023/01/03 12:41:42;;;;;;;;;;;;;;;10.13;100.00;102492.88;5267259;28;20007;-74
2023/01/03 12:44:20;;;;;;;;;;;;;;;10.10;100.00;102490.41;5264603;28;20337;-76
2023/01/03 12:46:53;;;;;;;;;;;;;;;10.09;100.00;102496.59;5266786;28;19921;-75
2023/01/03 12:49:28;;;;;;;;;;;;;;;10.10;100.00;102493.03;5267599;28;19969;-76
2023/01/03 12:52:00;;;;;;;;;;;;;;;10.11;100.00;102497.31;5265181;28;20425;-75
2023/01/03 12:54:36;;;;;;;;;;;;;;;10.16;100.00;102490.06;5267080;28;19923;-76
2023/01/03 12:57:07;;;;;;;;;;;;;;;9.99;100.00;102493.63;5266402;28;19916;-73
2023/01/03 12:59:51;;;;;;;;;;;;;;;10.11;100.00;102491.25;5268881;28;20401;-76
2023/01/03 13:02:25;;;;;;;;;;;;;;;10.18;100.00;102500.44;5265321;28;20406;-75
2023/01/03 13:05:02;;;;;;;;;;;;;;;10.21;100.00;102501.13;5266715;28;19916;-74
2023/01/03 13:07:33;;;;;;;;;;;;;;;10.19;100.00;102496.88;5267910;28;19919;-74
2023/01/03 13:10:07;;;;;;;;;;;;;;;10.08;100.00;102501.91;5268798;28;20214;-75
2023/01/03 13:12:42;;;;;;;;;;;;;;;10.02;100.00;102499.63;5266760;28;19962;-76
2023/01/03 13:15:15;;;;;;;;;;;;;;;10.12;100.00;102491.19;5266963;28;20373;-76
2023/01/03 13:17:47;;;;;;;;;;;;;;;10.14;100.00;102494.53;5263136;28;20663;-74
2023/01/03 13:20:25;;;;;;;;;;;;;;;10.10;100.00;102486.94;5264216;28;19925;-75
2023/01/03 13:22:57;;;;;;;;;;;;;;;10.19;100.00;102476.81;5267795;28;19961;-76
2023/01/03 13:25:30;;;;;;;;;;;;;;;10.17;100.00;102473.41;5266785;28;19939;-76
2023/01/03 13:28:05;;;;;;;;;;;;;;;10.19;100.00;102473.31;5266094;28;19919;-74
2023/01/03 13:30:37;;;;;;;;;;;;;;;10.19;100.00;102482.06;5264245;28;19959;-74
2023/01/03 13:33:08;;;;;;;;;;;;;;;10.21;100.00;102471.47;5265336;28;19915;-75
2023/01/03 13:35:42;;;;;;;;;;;;;;;10.17;100.00;102468.19;5265780;28;19942;-76
2023/01/03 13:38:20;;;;;;;;;;;;;;;10.22;100.00;102467.91;5252053;28;20013;-76
2023/01/03 13:40:59;;;;;;;;;;;;;;;10.27;100.00;102460.69;5264535;28;19917;-76
2023/01/03 13:43:32;;;;;;;;;;;;;;;10.28;100.00;102464.16;5260102;28;20003;-75
2023/01/03 13:46:23;;;;;;;;;;;;;;;10.19;100.00;102470.69;5264203;28;19920;-74
2023/01/03 13:48:59;;;;;;;;;;;;;;;10.17;100.00;102462.94;5261122;28;19924;-75
2023/01/03 13:51:39;;;;;;;;;;;;;;;10.25;100.00;102462.53;5261173;28;19974;-75
2023/01/03 13:54:11;;;;;;;;;;;;;;;10.22;100.00;102460.06;5263884;28;19986;-75
2023/01/03 13:56:42;;;;;;;;;;;;;;;10.29;100.00;102461.44;5249894;28;19916;-75
2023/01/03 13:59:14;;;;;;;;;;;;;;;10.23;100.00;102443.44;5261238;28;19924;-76
2023/01/03 14:01:51;;;;;;;;;;;;;;;10.23;100.00;102459.16;5258442;28;19920;-75
2023/01/03 14:04:22;;;;;;;;;;;;;;;10.13;100.00;102447.50;5258637;28;20036;-76
2023/01/03 14:07:12;;;;;;;;;;;;;;;10.14;100.00;102436.91;5261170;28;19920;-76